Messwerte Kill Devil Hills

Temperatur

Temperatur
°C
1574114400 17.00 17.00 8
1574118000 18.00 18.00 8
1574121600 19.00 19.00 8
1574125200 20.00 20.00 8
1574128800 21.00 21.00 8
1574132400 22.00 22.00 8
1574136000 23.00 23.00 8
1574139600 0.00 0.00 8
1574143200 1.00 1.00 8
1574146800 2.00 2.00 8
1574150400 3.00 3.00 8
1574154000 4.00 4.00 8
1574157600 5.00 5.00 8
1574161200 6.00 6.00 8
1574164800 7.00 7.00 8
1574168400 8.00 8.00 8
1574172000 9.00 9.00 8
1574175600 10.00 10.00 9
1574179200 11.00 11.00 9
1574182800 12.00 12.00 9
1574186400 13.00 13.00 9
1574190000 14.00 14.00 9
1574193600 15.00 15.00 10
1574197200 16.00 16.00 10

Aktuellste Messwerte

Wettercharakter
Wetter: bedeckt
Temperatur
9 °C
Feuchtigkeit
85 %
Wind
0 km/h, -
Luftdruck
1010 hPa
Messzeit: 19. November 2019, 17.00Datenquelle: METAR

Weitere Messstationen in der Nähe

Messstation Temperatur Entfernung
Manteo / Dare County Regional 10 °C 11 km
Elizabeth City 10 °C 52 km
Currituck 10 °C 53 km
Edenton 10 °C 81 km
Hatteras 10 °C 87 km
Chesapeake 8 °C 93 km
Virginia Beach 8 °C 95 km

Wind

Windrichtung Böen Mittelwind
° km/h km/h
1574114400 17.00 16.00 - 17.00 0
1574118000 18.00 17.00 - 18.00 310° 40 5
1574121600 19.00 18.00 - 19.00 0
1574125200 20.00 19.00 - 20.00
1574128800 21.00 20.00 - 21.00
1574132400 22.00 21.00 - 22.00
1574136000 23.00 22.00 - 23.00
1574139600 0.00 23.00 - 0.00 0
1574143200 1.00 0.00 - 1.00 0
1574146800 2.00 1.00 - 2.00 0
1574150400 3.00 2.00 - 3.00 270° 5
1574154000 4.00 3.00 - 4.00
1574157600 5.00 4.00 - 5.00 290° 5
1574161200 6.00 5.00 - 6.00 0
1574164800 7.00 6.00 - 7.00
1574168400 8.00 7.00 - 8.00 330° 10
1574172000 9.00 8.00 - 9.00 290° 10
1574175600 10.00 9.00 - 10.00
1574179200 11.00 10.00 - 11.00 310° 5
1574182800 12.00 11.00 - 12.00 0
1574186400 13.00 12.00 - 13.00 0
1574190000 14.00 13.00 - 14.00 0
1574193600 15.00 14.00 - 15.00
1574197200 16.00 15.00 - 16.00

Ihre Wetterstation

Fehlt Ihre Wetterstation auf unserem Portal?

Schreiben Sie an network@meteonews.ch

Klima

Wann ist es am wärmsten? Wann regnet es am wenigsten? Unsere Klimadaten geben Auskunft.